createdAt,value
2018-07-24T00:05:48.152Z,6.1
2018-07-24T00:11:43.110Z,6.36
2018-07-24T00:17:38.124Z,6.11
2018-07-24T00:23:33.138Z,6.73
2018-07-24T00:29:28.131Z,6.6
2018-07-24T00:35:23.123Z,7.36
2018-07-24T00:41:18.113Z,6.45
2018-07-24T00:47:13.146Z,7.13
2018-07-24T00:53:08.178Z,7.45
2018-07-24T00:59:03.133Z,6.87
2018-07-24T01:04:58.142Z,7.46
2018-07-24T01:10:53.152Z,7.32
2018-07-24T01:16:48.122Z,6.84
2018-07-24T01:22:43.207Z,7.13
2018-07-24T01:28:38.159Z,7.45
2018-07-24T01:34:33.222Z,7.47
2018-07-24T01:40:28.206Z,7.31
2018-07-24T01:46:23.186Z,6.63
2018-07-24T01:52:18.172Z,7.35
2018-07-24T01:58:13.160Z,7.07
2018-07-24T02:04:08.166Z,7.65
2018-07-24T02:10:03.168Z,7.43
2018-07-24T02:15:58.237Z,7.73
2018-07-24T02:21:53.259Z,7.32
2018-07-24T02:27:48.226Z,7.78
2018-07-24T02:33:43.251Z,6.78
2018-07-24T02:39:38.215Z,7.07
2018-07-24T02:45:33.212Z,7.75
2018-07-24T02:51:28.217Z,6.77
2018-07-24T02:57:23.206Z,7.02
2018-07-24T03:03:18.213Z,7.32
2018-07-24T03:09:13.232Z,7.26
2018-07-24T03:15:08.249Z,7.11
2018-07-24T03:21:03.233Z,6.38
2018-07-24T03:26:58.289Z,6.64
2018-07-24T03:32:53.253Z,6.61
2018-07-24T03:38:48.259Z,6.25
2018-07-24T03:44:43.275Z,6.52
2018-07-24T03:50:38.253Z,6.8
2018-07-24T03:56:33.289Z,6.5
2018-07-24T04:02:28.357Z,6.64
2018-07-24T04:08:23.263Z,6.3
2018-07-24T04:14:18.254Z,6.1
2018-07-24T04:20:13.249Z,6.4
2018-07-24T04:26:08.275Z,5.89
2018-07-24T04:32:03.288Z,6.25
2018-07-24T04:37:58.281Z,6.94
2018-07-24T04:43:53.294Z,6.09
2018-07-24T04:49:48.271Z,5.94
2018-07-24T04:55:43.280Z,5.77
2018-07-24T05:01:38.286Z,6.92
2018-07-24T05:07:33.305Z,6.07
2018-07-24T05:13:28.312Z,6.5
2018-07-24T05:19:23.348Z,7.18
2018-07-24T05:25:18.319Z,6.14
2018-07-24T05:31:13.340Z,7.03
2018-07-24T05:37:08.363Z,7.74
2018-07-24T05:43:03.302Z,7.08
2018-07-24T05:48:58.410Z,7.36
2018-07-24T05:54:53.347Z,7.43
2018-07-24T06:00:48.361Z,8.41
2018-07-24T06:06:43.360Z,10
2018-07-24T06:12:38.356Z,18.38
